sensor_id;sensor_type;location;lat;lon;timestamp;P1;durP1;ratioP1;P2;durP2;ratioP2
32445;SDS011;18899;50.748;7.102;2024-01-06T00:01:30;1.98;;;1.10;;
32445;SDS011;18899;50.748;7.102;2024-01-06T00:03:55;1.92;;;0.80;;
32445;SDS011;18899;50.748;7.102;2024-01-06T00:06:21;3.47;;;0.88;;
32445;SDS011;18899;50.748;7.102;2024-01-06T00:08:47;4.43;;;1.33;;
32445;SDS011;18899;50.748;7.102;2024-01-06T00:11:18;2.33;;;0.90;;
32445;SDS011;18899;50.748;7.102;2024-01-06T00:13:45;1.75;;;0.82;;
32445;SDS011;18899;50.748;7.102;2024-01-06T00:16:10;3.05;;;1.27;;
32445;SDS011;18899;50.748;7.102;2024-01-06T00:18:36;2.13;;;0.80;;
32445;SDS011;18899;50.748;7.102;2024-01-06T00:21:01;3.50;;;1.10;;
32445;SDS011;18899;50.748;7.102;2024-01-06T00:23:27;2.08;;;0.88;;
32445;SDS011;18899;50.748;7.102;2024-01-06T00:25:52;1.83;;;0.80;;
32445;SDS011;18899;50.748;7.102;2024-01-06T00:28:18;2.42;;;0.90;;
32445;SDS011;18899;50.748;7.102;2024-01-06T00:30:43;4.30;;;1.10;;
32445;SDS011;18899;50.748;7.102;2024-01-06T00:33:09;2.13;;;0.90;;
32445;SDS011;18899;50.748;7.102;2024-01-06T00:35:34;2.67;;;1.00;;
32445;SDS011;18899;50.748;7.102;2024-01-06T00:38:00;2.33;;;1.10;;
32445;SDS011;18899;50.748;7.102;2024-01-06T00:40:25;2.97;;;1.00;;
32445;SDS011;18899;50.748;7.102;2024-01-06T00:42:51;1.83;;;0.90;;
32445;SDS011;18899;50.748;7.102;2024-01-06T00:45:16;2.35;;;1.00;;
32445;SDS011;18899;50.748;7.102;2024-01-06T00:47:42;3.55;;;1.10;;
32445;SDS011;18899;50.748;7.102;2024-01-06T00:50:08;4.20;;;1.00;;
32445;SDS011;18899;50.748;7.102;2024-01-06T00:52:34;1.40;;;1.20;;
32445;SDS011;18899;50.748;7.102;2024-01-06T00:54:59;2.33;;;1.25;;
32445;SDS011;18899;50.748;7.102;2024-01-06T00:57:25;1.52;;;1.20;;
32445;SDS011;18899;50.748;7.102;2024-01-06T00:59:50;1.38;;;0.95;;
32445;SDS011;18899;50.748;7.102;2024-01-06T01:02:16;2.50;;;0.98;;
32445;SDS011;18899;50.748;7.102;2024-01-06T01:04:41;1.92;;;1.10;;
32445;SDS011;18899;50.748;7.102;2024-01-06T01:07:07;1.27;;;0.98;;
32445;SDS011;18899;50.748;7.102;2024-01-06T01:09:32;2.22;;;1.15;;
32445;SDS011;18899;50.748;7.102;2024-01-06T01:11:59;1.67;;;1.02;;
32445;SDS011;18899;50.748;7.102;2024-01-06T01:14:25;1.70;;;1.20;;
32445;SDS011;18899;50.748;7.102;2024-01-06T01:16:50;3.72;;;1.30;;
32445;SDS011;18899;50.748;7.102;2024-01-06T01:19:16;2.97;;;1.13;;
32445;SDS011;18899;50.748;7.102;2024-01-06T01:21:41;3.10;;;1.20;;
32445;SDS011;18899;50.748;7.102;2024-01-06T01:24:07;1.65;;;0.90;;
32445;SDS011;18899;50.748;7.102;2024-01-06T01:26:32;2.00;;;1.20;;
32445;SDS011;18899;50.748;7.102;2024-01-06T01:28:58;2.30;;;1.10;;
32445;SDS011;18899;50.748;7.102;2024-01-06T01:31:23;2.42;;;1.10;;
32445;SDS011;18899;50.748;7.102;2024-01-06T01:33:49;2.90;;;1.27;;
32445;SDS011;18899;50.748;7.102;2024-01-06T01:36:15;3.90;;;1.23;;
32445;SDS011;18899;50.748;7.102;2024-01-06T01:38:40;1.85;;;1.20;;
32445;SDS011;18899;50.748;7.102;2024-01-06T01:41:06;2.40;;;1.30;;
32445;SDS011;18899;50.748;7.102;2024-01-06T01:43:31;1.80;;;1.10;;
32445;SDS011;18899;50.748;7.102;2024-01-06T01:45:57;2.30;;;1.10;;
32445;SDS011;18899;50.748;7.102;2024-01-06T01:48:23;1.67;;;1.15;;
32445;SDS011;18899;50.748;7.102;2024-01-06T01:50:49;1.25;;;0.98;;
32445;SDS011;18899;50.748;7.102;2024-01-06T01:53:16;1.95;;;0.98;;
32445;SDS011;18899;50.748;7.102;2024-01-06T01:55:41;2.47;;;1.02;;
32445;SDS011;18899;50.748;7.102;2024-01-06T01:58:09;2.95;;;1.10;;
32445;SDS011;18899;50.748;7.102;2024-01-06T02:00:37;2.95;;;1.02;;
32445;SDS011;18899;50.748;7.102;2024-01-06T02:03:03;1.33;;;1.00;;
32445;SDS011;18899;50.748;7.102;2024-01-06T02:05:30;2.67;;;1.10;;
32445;SDS011;18899;50.748;7.102;2024-01-06T02:07:55;3.00;;;1.00;;
32445;SDS011;18899;50.748;7.102;2024-01-06T02:10:21;1.05;;;0.82;;
32445;SDS011;18899;50.748;7.102;2024-01-06T02:12:47;4.60;;;1.27;;
32445;SDS011;18899;50.748;7.102;2024-01-06T02:15:13;1.50;;;1.00;;
32445;SDS011;18899;50.748;7.102;2024-01-06T02:17:39;2.33;;;1.10;;
32445;SDS011;18899;50.748;7.102;2024-01-06T02:20:05;2.22;;;1.17;;
32445;SDS011;18899;50.748;7.102;2024-01-06T02:22:32;1.58;;;1.20;;
32445;SDS011;18899;50.748;7.102;2024-01-06T02:24:59;3.30;;;1.23;;
32445;SDS011;18899;50.748;7.102;2024-01-06T02:27:25;2.38;;;1.27;;
32445;SDS011;18899;50.748;7.102;2024-01-06T02:29:51;3.45;;;1.42;;
32445;SDS011;18899;50.748;7.102;2024-01-06T02:32:16;2.47;;;1.52;;
32445;SDS011;18899;50.748;7.102;2024-01-06T02:34:42;3.30;;;1.55;;
32445;SDS011;18899;50.748;7.102;2024-01-06T02:37:07;3.17;;;1.90;;
32445;SDS011;18899;50.748;7.102;2024-01-06T02:39:33;2.72;;;1.90;;
32445;SDS011;18899;50.748;7.102;2024-01-06T02:41:58;2.35;;;1.58;;
32445;SDS011;18899;50.748;7.102;2024-01-06T02:44:24;2.13;;;1.60;;
32445;SDS011;18899;50.748;7.102;2024-01-06T02:46:49;3.70;;;1.90;;
32445;SDS011;18899;50.748;7.102;2024-01-06T02:49:15;3.83;;;1.90;;
32445;SDS011;18899;50.748;7.102;2024-01-06T02:51:40;3.90;;;2.10;;
32445;SDS011;18899;50.748;7.102;2024-01-06T02:54:06;5.20;;;2.13;;
32445;SDS011;18899;50.748;7.102;2024-01-06T02:56:31;3.47;;;2.00;;
32445;SDS011;18899;50.748;7.102;2024-01-06T02:58:57;3.72;;;2.10;;
32445;SDS011;18899;50.748;7.102;2024-01-06T03:01:22;4.45;;;2.88;;
32445;SDS011;18899;50.748;7.102;2024-01-06T03:03:47;3.30;;;2.15;;
32445;SDS011;18899;50.748;7.102;2024-01-06T03:06:13;3.47;;;2.25;;
32445;SDS011;18899;50.748;7.102;2024-01-06T03:08:38;5.28;;;2.67;;
32445;SDS011;18899;50.748;7.102;2024-01-06T03:11:04;4.63;;;2.28;;
32445;SDS011;18899;50.748;7.102;2024-01-06T03:13:30;5.05;;;2.75;;
32445;SDS011;18899;50.748;7.102;2024-01-06T03:15:56;3.63;;;2.40;;
32445;SDS011;18899;50.748;7.102;2024-01-06T03:18:21;4.72;;;2.65;;
32445;SDS011;18899;50.748;7.102;2024-01-06T03:20:47;5.72;;;3.03;;
32445;SDS011;18899;50.748;7.102;2024-01-06T03:23:12;8.57;;;3.38;;
32445;SDS011;18899;50.748;7.102;2024-01-06T03:25:38;6.72;;;3.85;;
32445;SDS011;18899;50.748;7.102;2024-01-06T03:28:03;7.53;;;3.50;;
32445;SDS011;18899;50.748;7.102;2024-01-06T03:30:29;5.70;;;3.63;;
32445;SDS011;18899;50.748;7.102;2024-01-06T03:32:54;8.18;;;4.07;;
32445;SDS011;18899;50.748;7.102;2024-01-06T03:35:20;6.90;;;3.83;;
32445;SDS011;18899;50.748;7.102;2024-01-06T03:37:45;10.10;;;4.25;;
32445;SDS011;18899;50.748;7.102;2024-01-06T03:40:11;8.32;;;4.53;;
32445;SDS011;18899;50.748;7.102;2024-01-06T03:42:37;9.68;;;4.97;;
32445;SDS011;18899;50.748;7.102;2024-01-06T03:45:03;10.25;;;5.20;;
32445;SDS011;18899;50.748;7.102;2024-01-06T03:47:29;9.45;;;5.18;;
32445;SDS011;18899;50.748;7.102;2024-01-06T03:49:54;10.00;;;5.57;;
32445;SDS011;18899;50.748;7.102;2024-01-06T03:52:19;10.57;;;5.28;;
32445;SDS011;18899;50.748;7.102;2024-01-06T03:54:45;10.60;;;5.60;;
32445;SDS011;18899;50.748;7.102;2024-01-06T03:57:10;10.90;;;5.43;;
32445;SDS011;18899;50.748;7.102;2024-01-06T03:59:36;10.68;;;5.95;;
32445;SDS011;18899;50.748;7.102;2024-01-06T04:02:02;10.88;;;6.13;;
32445;SDS011;18899;50.748;7.102;2024-01-06T04:04:27;9.98;;;6.00;;
32445;SDS011;18899;50.748;7.102;2024-01-06T04:06:53;10.75;;;6.25;;
32445;SDS011;18899;50.748;7.102;2024-01-06T04:09:18;11.05;;;5.70;;
32445;SDS011;18899;50.748;7.102;2024-01-06T04:11:44;11.77;;;6.88;;
32445;SDS011;18899;50.748;7.102;2024-01-06T04:14:09;11.95;;;5.40;;
32445;SDS011;18899;50.748;7.102;2024-01-06T04:16:35;11.55;;;6.60;;
32445;SDS011;18899;50.748;7.102;2024-01-06T04:19:00;11.48;;;6.00;;
32445;SDS011;18899;50.748;7.102;2024-01-06T04:21:26;10.00;;;6.25;;
32445;SDS011;18899;50.748;7.102;2024-01-06T04:23:51;13.00;;;6.68;;
32445;SDS011;18899;50.748;7.102;2024-01-06T04:26:17;13.82;;;7.07;;
32445;SDS011;18899;50.748;7.102;2024-01-06T04:28:42;12.00;;;7.03;;
32445;SDS011;18899;50.748;7.102;2024-01-06T04:31:08;13.45;;;7.82;;
32445;SDS011;18899;50.748;7.102;2024-01-06T04:33:33;15.07;;;7.63;;
32445;SDS011;18899;50.748;7.102;2024-01-06T04:35:59;15.25;;;8.48;;
32445;SDS011;18899;50.748;7.102;2024-01-06T04:38:26;18.80;;;8.35;;
32445;SDS011;18899;50.748;7.102;2024-01-06T04:40:52;17.50;;;7.90;;
32445;SDS011;18899;50.748;7.102;2024-01-06T04:43:18;14.15;;;8.20;;
32445;SDS011;18899;50.748;7.102;2024-01-06T04:45:43;14.95;;;8.30;;
32445;SDS011;18899;50.748;7.102;2024-01-06T04:48:09;17.98;;;9.43;;
32445;SDS011;18899;50.748;7.102;2024-01-06T04:50:34;18.08;;;9.13;;
32445;SDS011;18899;50.748;7.102;2024-01-06T04:53:00;18.50;;;9.48;;
32445;SDS011;18899;50.748;7.102;2024-01-06T04:55:25;19.42;;;9.88;;
32445;SDS011;18899;50.748;7.102;2024-01-06T04:57:51;18.00;;;9.20;;
32445;SDS011;18899;50.748;7.102;2024-01-06T05:00:16;16.52;;;9.43;;
32445;SDS011;18899;50.748;7.102;2024-01-06T05:02:42;21.05;;;10.35;;
32445;SDS011;18899;50.748;7.102;2024-01-06T05:05:07;19.90;;;9.77;;
32445;SDS011;18899;50.748;7.102;2024-01-06T05:07:33;18.25;;;10.32;;
32445;SDS011;18899;50.748;7.102;2024-01-06T05:09:58;19.13;;;9.93;;
32445;SDS011;18899;50.748;7.102;2024-01-06T05:12:24;16.67;;;9.00;;
32445;SDS011;18899;50.748;7.102;2024-01-06T05:14:49;16.25;;;9.52;;
32445;SDS011;18899;50.748;7.102;2024-01-06T05:17:15;17.40;;;10.30;;
32445;SDS011;18899;50.748;7.102;2024-01-06T05:19:40;19.13;;;9.02;;
32445;SDS011;18899;50.748;7.102;2024-01-06T05:22:06;20.17;;;9.23;;
32445;SDS011;18899;50.748;7.102;2024-01-06T05:24:32;21.40;;;9.57;;
32445;SDS011;18899;50.748;7.102;2024-01-06T05:26:57;19.40;;;9.95;;
32445;SDS011;18899;50.748;7.102;2024-01-06T05:29:23;17.13;;;9.13;;
32445;SDS011;18899;50.748;7.102;2024-01-06T05:31:50;16.08;;;8.43;;
32445;SDS011;18899;50.748;7.102;2024-01-06T05:34:16;14.13;;;7.63;;
32445;SDS011;18899;50.748;7.102;2024-01-06T05:36:42;18.15;;;8.52;;
32445;SDS011;18899;50.748;7.102;2024-01-06T05:39:07;13.93;;;7.50;;
32445;SDS011;18899;50.748;7.102;2024-01-06T05:41:39;20.80;;;8.65;;
32445;SDS011;18899;50.748;7.102;2024-01-06T05:44:05;17.80;;;8.00;;
32445;SDS011;18899;50.748;7.102;2024-01-06T05:46:31;18.90;;;8.32;;
32445;SDS011;18899;50.748;7.102;2024-01-06T05:48:56;17.10;;;8.15;;
32445;SDS011;18899;50.748;7.102;2024-01-06T05:51:22;14.77;;;7.70;;
32445;SDS011;18899;50.748;7.102;2024-01-06T05:53:48;16.33;;;8.25;;
32445;SDS011;18899;50.748;7.102;2024-01-06T05:56:25;16.33;;;8.77;;
32445;SDS011;18899;50.748;7.102;2024-01-06T05:58:52;18.95;;;9.60;;
32445;SDS011;18899;50.748;7.102;2024-01-06T06:01:18;21.67;;;10.52;;
32445;SDS011;18899;50.748;7.102;2024-01-06T06:03:44;21.92;;;10.75;;
32445;SDS011;18899;50.748;7.102;2024-01-06T06:06:11;21.13;;;11.05;;
32445;SDS011;18899;50.748;7.102;2024-01-06T06:08:36;22.75;;;10.75;;
32445;SDS011;18899;50.748;7.102;2024-01-06T06:11:02;18.55;;;10.35;;
32445;SDS011;18899;50.748;7.102;2024-01-06T06:13:30;23.77;;;11.48;;
32445;SDS011;18899;50.748;7.102;2024-01-06T06:15:56;23.23;;;11.65;;
32445;SDS011;18899;50.748;7.102;2024-01-06T06:18:22;24.92;;;12.18;;
32445;SDS011;18899;50.748;7.102;2024-01-06T06:20:48;30.33;;;14.85;;
32445;SDS011;18899;50.748;7.102;2024-01-06T06:23:14;34.15;;;15.85;;
32445;SDS011;18899;50.748;7.102;2024-01-06T06:25:39;38.05;;;15.70;;
32445;SDS011;18899;50.748;7.102;2024-01-06T06:28:05;37.65;;;16.80;;
32445;SDS011;18899;50.748;7.102;2024-01-06T06:30:31;30.45;;;14.50;;
32445;SDS011;18899;50.748;7.102;2024-01-06T06:32:57;33.15;;;15.13;;
32445;SDS011;18899;50.748;7.102;2024-01-06T06:35:23;32.33;;;14.57;;
32445;SDS011;18899;50.748;7.102;2024-01-06T06:37:49;31.35;;;14.27;;
32445;SDS011;18899;50.748;7.102;2024-01-06T06:40:15;34.08;;;15.23;;
32445;SDS011;18899;50.748;7.102;2024-01-06T06:42:40;33.88;;;15.90;;
32445;SDS011;18899;50.748;7.102;2024-01-06T06:45:06;30.77;;;14.80;;
32445;SDS011;18899;50.748;7.102;2024-01-06T06:47:32;32.42;;;15.73;;
32445;SDS011;18899;50.748;7.102;2024-01-06T06:49:57;33.20;;;14.90;;
32445;SDS011;18899;50.748;7.102;2024-01-06T06:52:23;30.73;;;14.50;;
32445;SDS011;18899;50.748;7.102;2024-01-06T06:54:48;29.30;;;14.73;;
32445;SDS011;18899;50.748;7.102;2024-01-06T06:57:14;32.45;;;15.65;;
32445;SDS011;18899;50.748;7.102;2024-01-06T06:59:40;34.08;;;15.50;;
32445;SDS011;18899;50.748;7.102;2024-01-06T07:02:06;38.63;;;15.27;;
32445;SDS011;18899;50.748;7.102;2024-01-06T07:04:32;32.35;;;14.13;;
32445;SDS011;18899;50.748;7.102;2024-01-06T07:06:57;31.73;;;14.38;;
32445;SDS011;18899;50.748;7.102;2024-01-06T07:09:23;28.58;;;13.18;;
32445;SDS011;18899;50.748;7.102;2024-01-06T07:11:49;30.35;;;14.35;;
32445;SDS011;18899;50.748;7.102;2024-01-06T07:14:15;25.85;;;12.50;;
32445;SDS011;18899;50.748;7.102;2024-01-06T07:16:40;29.90;;;13.73;;
32445;SDS011;18899;50.748;7.102;2024-01-06T07:19:06;31.17;;;13.45;;
32445;SDS011;18899;50.748;7.102;2024-01-06T07:21:31;26.60;;;12.50;;
32445;SDS011;18899;50.748;7.102;2024-01-06T07:23:57;23.38;;;10.13;;
32445;SDS011;18899;50.748;7.102;2024-01-06T07:26:22;21.85;;;10.70;;
32445;SDS011;18899;50.748;7.102;2024-01-06T07:28:48;23.20;;;11.05;;
32445;SDS011;18899;50.748;7.102;2024-01-06T07:31:14;26.80;;;12.25;;
32445;SDS011;18899;50.748;7.102;2024-01-06T07:33:39;28.77;;;13.32;;
32445;SDS011;18899;50.748;7.102;2024-01-06T07:36:05;33.38;;;13.27;;
32445;SDS011;18899;50.748;7.102;2024-01-06T07:38:31;31.20;;;12.35;;
32445;SDS011;18899;50.748;7.102;2024-01-06T07:40:56;28.98;;;13.55;;
32445;SDS011;18899;50.748;7.102;2024-01-06T07:43:22;32.97;;;14.02;;
32445;SDS011;18899;50.748;7.102;2024-01-06T07:45:47;25.17;;;11.20;;
32445;SDS011;18899;50.748;7.102;2024-01-06T07:48:14;25.75;;;12.05;;
32445;SDS011;18899;50.748;7.102;2024-01-06T07:50:40;31.27;;;12.98;;
32445;SDS011;18899;50.748;7.102;2024-01-06T07:53:05;28.98;;;13.02;;
32445;SDS011;18899;50.748;7.102;2024-01-06T07:55:31;35.70;;;14.07;;
32445;SDS011;18899;50.748;7.102;2024-01-06T07:57:56;35.15;;;13.43;;
32445;SDS011;18899;50.748;7.102;2024-01-06T08:00:22;30.55;;;13.75;;
32445;SDS011;18899;50.748;7.102;2024-01-06T08:02:47;32.05;;;14.00;;
32445;SDS011;18899;50.748;7.102;2024-01-06T08:05:13;36.22;;;14.88;;
32445;SDS011;18899;50.748;7.102;2024-01-06T08:07:38;36.92;;;14.57;;
32445;SDS011;18899;50.748;7.102;2024-01-06T08:10:04;31.98;;;13.88;;
32445;SDS011;18899;50.748;7.102;2024-01-06T08:12:30;31.38;;;14.32;;
32445;SDS011;18899;50.748;7.102;2024-01-06T08:14:56;34.80;;;15.15;;
32445;SDS011;18899;50.748;7.102;2024-01-06T08:17:22;29.67;;;14.30;;
32445;SDS011;18899;50.748;7.102;2024-01-06T08:19:47;31.88;;;13.50;;
32445;SDS011;18899;50.748;7.102;2024-01-06T08:22:13;34.97;;;14.40;;
32445;SDS011;18899;50.748;7.102;2024-01-06T08:24:38;31.17;;;12.60;;
32445;SDS011;18899;50.748;7.102;2024-01-06T08:27:04;33.42;;;13.57;;
32445;SDS011;18899;50.748;7.102;2024-01-06T08:29:30;29.25;;;11.95;;
32445;SDS011;18899;50.748;7.102;2024-01-06T08:31:56;30.25;;;10.85;;
32445;SDS011;18899;50.748;7.102;2024-01-06T08:34:23;30.05;;;11.60;;
32445;SDS011;18899;50.748;7.102;2024-01-06T08:36:48;29.65;;;10.85;;
32445;SDS011;18899;50.748;7.102;2024-01-06T08:39:14;28.00;;;12.02;;
32445;SDS011;18899;50.748;7.102;2024-01-06T08:41:39;25.15;;;11.18;;
32445;SDS011;18899;50.748;7.102;2024-01-06T08:44:05;24.02;;;10.05;;
32445;SDS011;18899;50.748;7.102;2024-01-06T08:46:31;30.20;;;10.68;;
32445;SDS011;18899;50.748;7.102;2024-01-06T08:48:56;23.50;;;10.27;;
32445;SDS011;18899;50.748;7.102;2024-01-06T08:51:22;26.35;;;11.05;;
32445;SDS011;18899;50.748;7.102;2024-01-06T08:53:49;25.63;;;10.15;;
32445;SDS011;18899;50.748;7.102;2024-01-06T08:56:14;24.48;;;10.95;;
32445;SDS011;18899;50.748;7.102;2024-01-06T08:58:42;26.00;;;10.65;;
32445;SDS011;18899;50.748;7.102;2024-01-06T09:01:08;21.85;;;10.20;;
32445;SDS011;18899;50.748;7.102;2024-01-06T09:03:34;22.58;;;10.57;;
32445;SDS011;18899;50.748;7.102;2024-01-06T09:05:59;23.55;;;9.68;;
32445;SDS011;18899;50.748;7.102;2024-01-06T09:08:25;30.13;;;11.00;;
32445;SDS011;18899;50.748;7.102;2024-01-06T09:10:51;25.45;;;11.10;;
32445;SDS011;18899;50.748;7.102;2024-01-06T09:13:17;25.98;;;12.15;;
32445;SDS011;18899;50.748;7.102;2024-01-06T09:15:43;29.40;;;12.65;;
32445;SDS011;18899;50.748;7.102;2024-01-06T09:18:08;27.52;;;12.40;;
32445;SDS011;18899;50.748;7.102;2024-01-06T09:20:34;26.40;;;12.13;;
32445;SDS011;18899;50.748;7.102;2024-01-06T09:23:00;26.48;;;11.70;;
32445;SDS011;18899;50.748;7.102;2024-01-06T09:25:25;27.98;;;12.63;;
32445;SDS011;18899;50.748;7.102;2024-01-06T09:27:51;27.45;;;12.80;;
32445;SDS011;18899;50.748;7.102;2024-01-06T09:30:18;31.35;;;13.65;;
32445;SDS011;18899;50.748;7.102;2024-01-06T09:32:43;30.17;;;13.73;;
32445;SDS011;18899;50.748;7.102;2024-01-06T09:35:09;28.75;;;12.40;;
32445;SDS011;18899;50.748;7.102;2024-01-06T09:37:34;31.67;;;13.93;;
32445;SDS011;18899;50.748;7.102;2024-01-06T09:40:00;29.30;;;12.98;;
32445;SDS011;18899;50.748;7.102;2024-01-06T09:42:25;28.67;;;12.52;;
32445;SDS011;18899;50.748;7.102;2024-01-06T09:44:51;29.25;;;13.45;;
32445;SDS011;18899;50.748;7.102;2024-01-06T09:47:17;25.98;;;11.63;;
32445;SDS011;18899;50.748;7.102;2024-01-06T09:49:46;27.98;;;11.95;;
32445;SDS011;18899;50.748;7.102;2024-01-06T09:52:14;32.13;;;12.30;;
32445;SDS011;18899;50.748;7.102;2024-01-06T09:54:46;24.00;;;11.45;;
32445;SDS011;18899;50.748;7.102;2024-01-06T09:57:16;29.08;;;12.52;;
32445;SDS011;18899;50.748;7.102;2024-01-06T09:59:46;30.50;;;13.00;;
32445;SDS011;18899;50.748;7.102;2024-01-06T10:02:15;27.77;;;12.10;;
32445;SDS011;18899;50.748;7.102;2024-01-06T10:04:42;26.88;;;13.25;;
32445;SDS011;18899;50.748;7.102;2024-01-06T10:07:09;28.33;;;13.77;;
32445;SDS011;18899;50.748;7.102;2024-01-06T10:09:37;27.00;;;12.50;;
32445;SDS011;18899;50.748;7.102;2024-01-06T10:12:03;29.85;;;13.00;;
32445;SDS011;18899;50.748;7.102;2024-01-06T10:14:29;30.80;;;14.05;;
32445;SDS011;18899;50.748;7.102;2024-01-06T10:16:54;29.35;;;12.25;;
32445;SDS011;18899;50.748;7.102;2024-01-06T10:19:20;26.60;;;12.43;;
32445;SDS011;18899;50.748;7.102;2024-01-06T10:21:46;30.50;;;11.05;;
32445;SDS011;18899;50.748;7.102;2024-01-06T10:24:11;23.33;;;11.32;;
32445;SDS011;18899;50.748;7.102;2024-01-06T10:26:37;24.33;;;10.95;;
32445;SDS011;18899;50.748;7.102;2024-01-06T10:29:03;25.13;;;11.15;;
32445;SDS011;18899;50.748;7.102;2024-01-06T10:31:29;25.85;;;10.40;;
32445;SDS011;18899;50.748;7.102;2024-01-06T10:33:55;27.27;;;9.43;;
32445;SDS011;18899;50.748;7.102;2024-01-06T10:36:24;24.58;;;10.50;;
32445;SDS011;18899;50.748;7.102;2024-01-06T10:38:52;21.90;;;9.77;;
32445;SDS011;18899;50.748;7.102;2024-01-06T10:41:17;24.55;;;10.40;;
32445;SDS011;18899;50.748;7.102;2024-01-06T10:43:45;22.58;;;9.48;;
32445;SDS011;18899;50.748;7.102;2024-01-06T10:46:12;21.70;;;9.07;;
32445;SDS011;18899;50.748;7.102;2024-01-06T10:48:41;22.20;;;9.88;;
32445;SDS011;18899;50.748;7.102;2024-01-06T10:51:10;25.38;;;10.48;;
32445;SDS011;18899;50.748;7.102;2024-01-06T10:53:37;23.67;;;8.88;;
32445;SDS011;18899;50.748;7.102;2024-01-06T10:56:04;18.88;;;8.85;;
32445;SDS011;18899;50.748;7.102;2024-01-06T10:58:34;19.05;;;8.77;;
32445;SDS011;18899;50.748;7.102;2024-01-06T11:01:08;20.63;;;8.85;;
32445;SDS011;18899;50.748;7.102;2024-01-06T11:03:35;17.90;;;8.80;;
32445;SDS011;18899;50.748;7.102;2024-01-06T11:06:02;18.70;;;7.85;;
32445;SDS011;18899;50.748;7.102;2024-01-06T11:08:28;17.98;;;7.78;;
32445;SDS011;18899;50.748;7.102;2024-01-06T11:10:55;15.10;;;7.70;;
32445;SDS011;18899;50.748;7.102;2024-01-06T11:13:22;17.05;;;7.72;;
32445;SDS011;18899;50.748;7.102;2024-01-06T11:15:53;16.77;;;7.47;;
32445;SDS011;18899;50.748;7.102;2024-01-06T11:21:19;18.27;;;8.20;;
32445;SDS011;18899;50.748;7.102;2024-01-06T11:24:10;15.60;;;7.30;;
32445;SDS011;18899;50.748;7.102;2024-01-06T11:26:59;13.55;;;7.32;;
32445;SDS011;18899;50.748;7.102;2024-01-06T11:29:26;17.33;;;7.10;;
32445;SDS011;18899;50.748;7.102;2024-01-06T11:34:50;16.80;;;7.38;;
32445;SDS011;18899;50.748;7.102;2024-01-06T11:37:18;15.65;;;7.40;;
32445;SDS011;18899;50.748;7.102;2024-01-06T11:39:48;16.20;;;7.07;;
32445;SDS011;18899;50.748;7.102;2024-01-06T11:42:15;16.42;;;7.63;;
32445;SDS011;18899;50.748;7.102;2024-01-06T11:44:44;16.13;;;7.47;;
32445;SDS011;18899;50.748;7.102;2024-01-06T11:47:12;15.23;;;7.97;;
32445;SDS011;18899;50.748;7.102;2024-01-06T11:49:38;24.05;;;8.05;;
32445;SDS011;18899;50.748;7.102;2024-01-06T11:52:03;20.52;;;8.05;;
32445;SDS011;18899;50.748;7.102;2024-01-06T11:54:30;15.98;;;7.78;;
32445;SDS011;18899;50.748;7.102;2024-01-06T11:56:56;18.38;;;8.50;;
32445;SDS011;18899;50.748;7.102;2024-01-06T11:59:22;18.10;;;8.40;;
32445;SDS011;18899;50.748;7.102;2024-01-06T12:01:48;15.98;;;8.20;;
32445;SDS011;18899;50.748;7.102;2024-01-06T12:04:14;16.80;;;8.27;;
32445;SDS011;18899;50.748;7.102;2024-01-06T12:06:43;16.48;;;7.93;;
32445;SDS011;18899;50.748;7.102;2024-01-06T12:09:12;17.83;;;8.25;;
32445;SDS011;18899;50.748;7.102;2024-01-06T12:11:41;17.88;;;8.48;;
32445;SDS011;18899;50.748;7.102;2024-01-06T12:14:09;18.88;;;9.32;;
32445;SDS011;18899;50.748;7.102;2024-01-06T12:16:34;24.75;;;9.15;;
32445;SDS011;18899;50.748;7.102;2024-01-06T12:19:01;20.02;;;9.75;;
32445;SDS011;18899;50.748;7.102;2024-01-06T12:21:28;19.23;;;9.10;;
32445;SDS011;18899;50.748;7.102;2024-01-06T12:24:11;21.02;;;9.63;;
32445;SDS011;18899;50.748;7.102;2024-01-06T12:26:40;25.10;;;9.48;;
32445;SDS011;18899;50.748;7.102;2024-01-06T12:29:06;22.52;;;9.77;;
32445;SDS011;18899;50.748;7.102;2024-01-06T12:31:32;21.75;;;9.68;;
32445;SDS011;18899;50.748;7.102;2024-01-06T12:33:58;23.70;;;9.98;;
32445;SDS011;18899;50.748;7.102;2024-01-06T12:36:24;19.40;;;9.60;;
32445;SDS011;18899;50.748;7.102;2024-01-06T12:38:50;21.15;;;9.65;;
32445;SDS011;18899;50.748;7.102;2024-01-06T12:41:16;21.63;;;10.27;;
32445;SDS011;18899;50.748;7.102;2024-01-06T12:43:41;25.23;;;9.68;;
32445;SDS011;18899;50.748;7.102;2024-01-06T12:46:07;21.00;;;9.25;;
32445;SDS011;18899;50.748;7.102;2024-01-06T12:48:32;23.45;;;8.93;;
32445;SDS011;18899;50.748;7.102;2024-01-06T12:50:58;25.55;;;10.43;;
32445;SDS011;18899;50.748;7.102;2024-01-06T12:53:23;19.77;;;9.15;;
32445;SDS011;18899;50.748;7.102;2024-01-06T12:55:49;21.13;;;9.55;;
32445;SDS011;18899;50.748;7.102;2024-01-06T12:58:14;21.25;;;9.82;;
32445;SDS011;18899;50.748;7.102;2024-01-06T13:00:40;20.20;;;9.63;;
32445;SDS011;18899;50.748;7.102;2024-01-06T13:03:05;20.92;;;9.93;;
32445;SDS011;18899;50.748;7.102;2024-01-06T13:05:31;19.77;;;9.60;;
32445;SDS011;18899;50.748;7.102;2024-01-06T13:07:57;22.75;;;9.88;;
32445;SDS011;18899;50.748;7.102;2024-01-06T13:10:22;21.15;;;9.80;;
32445;SDS011;18899;50.748;7.102;2024-01-06T13:12:48;26.15;;;9.57;;
32445;SDS011;18899;50.748;7.102;2024-01-06T13:15:14;23.20;;;10.02;;
32445;SDS011;18899;50.748;7.102;2024-01-06T13:17:39;21.58;;;8.98;;
32445;SDS011;18899;50.748;7.102;2024-01-06T13:20:05;21.70;;;9.80;;
32445;SDS011;18899;50.748;7.102;2024-01-06T13:22:31;28.02;;;10.65;;
32445;SDS011;18899;50.748;7.102;2024-01-06T13:24:56;21.42;;;9.88;;
32445;SDS011;18899;50.748;7.102;2024-01-06T13:27:24;23.73;;;10.27;;
32445;SDS011;18899;50.748;7.102;2024-01-06T13:29:49;26.65;;;11.40;;
32445;SDS011;18899;50.748;7.102;2024-01-06T13:32:16;30.05;;;11.88;;
32445;SDS011;18899;50.748;7.102;2024-01-06T13:34:44;26.35;;;12.07;;
32445;SDS011;18899;50.748;7.102;2024-01-06T13:37:09;33.97;;;13.95;;
32445;SDS011;18899;50.748;7.102;2024-01-06T13:39:35;32.50;;;13.52;;
32445;SDS011;18899;50.748;7.102;2024-01-06T13:42:01;33.38;;;13.98;;
32445;SDS011;18899;50.748;7.102;2024-01-06T13:44:28;35.75;;;14.73;;
32445;SDS011;18899;50.748;7.102;2024-01-06T13:46:54;36.90;;;14.25;;
32445;SDS011;18899;50.748;7.102;2024-01-06T13:49:20;34.88;;;12.60;;
32445;SDS011;18899;50.748;7.102;2024-01-06T13:51:46;31.25;;;11.95;;
32445;SDS011;18899;50.748;7.102;2024-01-06T13:54:12;28.63;;;12.32;;
32445;SDS011;18899;50.748;7.102;2024-01-06T13:56:38;21.73;;;10.23;;
32445;SDS011;18899;50.748;7.102;2024-01-06T13:59:03;22.48;;;10.13;;
32445;SDS011;18899;50.748;7.102;2024-01-06T14:01:29;25.45;;;10.80;;
32445;SDS011;18899;50.748;7.102;2024-01-06T14:03:55;23.10;;;10.02;;
32445;SDS011;18899;50.748;7.102;2024-01-06T14:06:23;25.60;;;10.98;;
32445;SDS011;18899;50.748;7.102;2024-01-06T14:08:50;25.13;;;10.27;;
32445;SDS011;18899;50.748;7.102;2024-01-06T14:11:17;30.60;;;12.60;;
32445;SDS011;18899;50.748;7.102;2024-01-06T14:13:43;28.88;;;11.95;;
32445;SDS011;18899;50.748;7.102;2024-01-06T14:16:13;30.42;;;13.18;;
32445;SDS011;18899;50.748;7.102;2024-01-06T14:18:39;31.60;;;12.93;;
32445;SDS011;18899;50.748;7.102;2024-01-06T14:21:04;32.72;;;12.25;;
32445;SDS011;18899;50.748;7.102;2024-01-06T14:23:30;36.03;;;12.98;;
32445;SDS011;18899;50.748;7.102;2024-01-06T14:25:57;32.30;;;13.40;;
32445;SDS011;18899;50.748;7.102;2024-01-06T14:28:23;30.40;;;13.85;;
32445;SDS011;18899;50.748;7.102;2024-01-06T14:30:49;31.50;;;13.50;;
32445;SDS011;18899;50.748;7.102;2024-01-06T14:33:15;27.63;;;12.15;;